Time;durP1;ratioP1;P1;durP2;ratioP2;P2;SDS_P1;SDS_P2;PMS_P1;PMS_P2;Temp;Humidity;BMP_temperature;BMP_pressure;BME280_temperature;BME280_humidity;BME280_pressure;Samples;Min_cycle;Max_cycle;Signal;HPM_P1;HPM_P2
2022/03/15 00:01:26;;;;;;;59.15;23.05;;;;;;;-1.60;59.01;101030.23;1746111;82;21003;-83
2022/03/15 00:03:52;;;;;;;65.60;24.55;;;;;;;-1.61;59.70;101024.27;1766438;81;20983;-82
2022/03/15 00:06:19;;;;;;;73.50;25.90;;;;;;;-1.65;60.76;101020.16;1745082;82;21035;-81
2022/03/15 00:08:47;;;;;;;65.90;25.23;;;;;;;-1.68;60.92;101011.09;1776848;80;21011;-81
2022/03/15 00:11:13;;;;;;;60.80;24.40;;;;;;;-1.72;61.76;101008.76;1776738;81;20923;-82
2022/03/15 00:13:40;;;;;;;71.02;25.57;;;;;;;-1.75;59.97;101010.26;1745220;81;21069;-81
2022/03/15 00:16:10;;;;;;;70.20;26.03;;;;;;;-1.83;60.28;101014.55;1740743;81;21180;-82
2022/03/15 00:18:37;;;;;;;70.03;23.62;;;;;;;-1.94;58.31;101024.55;1740684;82;21099;-82
2022/03/15 00:21:10;;;;;;;53.50;23.20;;;;;;;-2.06;61.08;101026.41;1725953;82;20996;-82
2022/03/15 00:23:35;;;;;;;59.42;21.62;;;;;;;-2.14;61.35;101013.63;1712339;83;21088;-82
2022/03/15 00:26:02;;;;;;;51.80;22.82;;;;;;;-2.13;56.76;101003.53;1720659;82;21488;-80
2022/03/15 00:28:29;;;;;;;71.10;22.40;;;;;;;-2.19;56.50;101005.70;1710828;84;21061;-82
2022/03/15 00:30:59;;;;;;;61.45;24.37;;;;;;;-2.21;60.68;101014.56;1726200;82;21215;-81
2022/03/15 00:33:29;;;;;;;70.55;24.07;;;;;;;-2.21;60.56;101018.75;1719400;83;21058;-82
2022/03/15 00:35:56;;;;;;;63.55;23.85;;;;;;;-2.21;60.65;101021.30;1727053;82;21091;-81
2022/03/15 00:38:23;;;;;;;48.00;20.57;;;;;;;-2.23;60.26;101024.16;1741266;82;21077;-82
2022/03/15 00:40:51;;;;;;;50.05;20.08;;;;;;;-2.21;58.67;101019.66;1713347;84;21015;-82
2022/03/15 00:43:20;;;;;;;59.77;21.15;;;;;;;-2.22;57.73;101012.78;1741051;82;21079;-81
2022/03/15 00:45:49;;;;;;;50.73;18.65;;;;;;;-2.25;58.13;101003.71;1708416;81;21062;-81
2022/03/15 00:48:15;;;;;;;52.88;20.10;;;;;;;-2.30;59.75;100994.91;1720309;82;21049;-82
2022/03/15 00:50:44;;;;;;;46.90;18.12;;;;;;;-2.33;62.03;100995.12;1710236;84;21031;-82
2022/03/15 00:53:11;;;;;;;44.70;19.50;;;;;;;-2.35;61.32;101001.41;1741157;82;21123;-82
2022/03/15 00:55:38;;;;;;;46.33;19.00;;;;;;;-2.37;59.36;100992.80;1741131;82;21170;-82
2022/03/15 00:58:05;;;;;;;49.42;20.68;;;;;;;-2.39;58.49;100989.28;1735228;82;21000;-81
2022/03/15 01:00:35;;;;;;;53.87;19.25;;;;;;;-2.45;57.10;100978.74;1724430;82;21036;-82
2022/03/15 01:03:03;;;;;;;47.62;20.00;;;;;;;-2.53;60.84;100979.57;1741005;82;21118;-81
2022/03/15 01:05:30;;;;;;;55.17;20.08;;;;;;;-2.54;59.17;100963.83;1741051;82;21276;-83
2022/03/15 01:07:57;;;;;;;48.48;18.75;;;;;;;-2.57;58.96;100957.27;1741107;81;21032;-81
2022/03/15 01:10:24;;;;;;;59.33;20.72;;;;;;;-2.58;59.30;100954.66;1720724;82;21043;-81
2022/03/15 01:12:51;;;;;;;47.00;18.32;;;;;;;-2.58;60.71;100942.80;1739998;82;21127;-83
2022/03/15 01:15:17;;;;;;;54.38;20.12;;;;;;;-2.60;59.36;100945.65;1743239;81;21054;-81
2022/03/15 01:17:44;;;;;;;51.48;19.57;;;;;;;-2.65;59.71;100936.45;1735439;79;21087;-83
2022/03/15 01:20:12;;;;;;;59.27;19.27;;;;;;;-2.67;61.91;100935.48;1733947;83;21022;-82
2022/03/15 01:22:39;;;;;;;48.40;19.35;;;;;;;-2.62;62.42;100940.86;1731139;83;21062;-82
2022/03/15 01:25:08;;;;;;;49.13;16.97;;;;;;;-2.62;62.19;100944.28;1734953;79;21160;-83
2022/03/15 01:27:36;;;;;;;47.80;17.52;;;;;;;-2.63;61.17;100945.09;1695274;84;21031;-82
2022/03/15 01:30:06;;;;;;;55.05;19.32;;;;;;;-2.62;61.06;100931.55;1699590;82;21027;-82
2022/03/15 01:32:33;;;;;;;47.40;18.37;;;;;;;-2.60;63.07;100919.78;1733058;80;21000;-82
2022/03/15 01:34:59;;;;;;;48.63;18.17;;;;;;;-2.56;62.14;100922.52;1753478;81;21044;-82
2022/03/15 01:37:26;;;;;;;50.92;19.20;;;;;;;-2.58;62.04;100930.47;1704016;82;21056;-82
2022/03/15 01:39:54;;;;;;;55.00;19.85;;;;;;;-2.63;62.14;100945.09;1734765;83;20988;-82
2022/03/15 01:42:21;;;;;;;44.38;17.32;;;;;;;-2.63;62.73;100947.63;1698368;85;21032;-82
2022/03/15 01:44:49;;;;;;;53.95;18.75;;;;;;;-2.63;61.90;100946.73;1734893;83;21067;-82
2022/03/15 01:47:17;;;;;;;49.60;17.35;;;;;;;-2.60;62.32;100941.42;1730047;83;20950;-83
2022/03/15 01:49:44;;;;;;;47.48;17.67;;;;;;;-2.57;58.96;100939.84;1714599;82;20956;-82
2022/03/15 01:52:15;;;;;;;43.35;17.40;;;;;;;-2.60;62.83;100924.87;1677649;84;21058;-81
2022/03/15 01:54:43;;;;;;;41.90;16.45;;;;;;;-2.58;62.52;100936.83;1722410;83;21879;-82
2022/03/15 01:57:13;;;;;;;42.58;17.45;;;;;;;-2.59;60.90;100947.39;1724413;83;21015;-82
2022/03/15 01:59:40;;;;;;;50.73;17.73;;;;;;;-2.57;61.48;100949.63;1732011;80;20959;-82
2022/03/15 02:02:07;;;;;;;174.90;46.92;;;;;;;-2.57;61.79;100945.80;1734829;83;21000;-82
2022/03/15 02:04:38;;;;;;;146.02;42.70;;;;;;;-2.66;61.44;100944.89;1730652;83;21499;-81
2022/03/15 02:07:13;;;;;;;87.62;32.53;;;;;;;-2.76;62.82;100955.34;1705620;84;21042;-82
2022/03/15 02:09:41;;;;;;;62.58;23.50;;;;;;;-2.82;63.17;100952.44;1688880;85;21010;-81
2022/03/15 02:12:09;;;;;;;57.88;20.65;;;;;;;-2.87;62.13;100966.16;1719251;83;21078;-82
2022/03/15 02:14:37;;;;;;;45.38;18.45;;;;;;;-2.91;63.29;100962.08;1711760;83;21054;-81
2022/03/15 02:17:04;;;;;;;44.53;17.95;;;;;;;-2.94;62.99;100953.00;1740691;82;21022;-81
2022/03/15 02:19:32;;;;;;;43.50;18.02;;;;;;;-2.98;64.75;100948.13;1755872;82;21155;-82
2022/03/15 02:21:59;;;;;;;44.18;17.90;;;;;;;-3.00;63.59;100959.47;1701630;83;21066;-82
2022/03/15 02:24:26;;;;;;;50.08;19.45;;;;;;;-3.00;64.06;100970.92;1731042;81;21069;-82
2022/03/15 02:26:53;;;;;;;54.20;20.57;;;;;;;-3.00;64.11;100973.88;1739651;81;21042;-82
2022/03/15 02:29:20;;;;;;;52.20;19.52;;;;;;;-2.99;64.17;100970.52;1755937;81;21015;-82
2022/03/15 02:31:49;;;;;;;46.00;18.23;;;;;;;-3.00;62.51;100967.11;1716849;83;21010;-82
2022/03/15 02:34:19;;;;;;;58.58;20.43;;;;;;;-3.00;66.27;100968.38;1737548;83;21154;-81
2022/03/15 02:36:46;;;;;;;48.25;19.52;;;;;;;-2.98;64.31;100968.85;1736606;83;21404;-82
2022/03/15 02:39:13;;;;;;;58.83;22.07;;;;;;;-2.97;63.94;100973.17;1733627;81;20991;-82
2022/03/15 02:41:40;;;;;;;42.35;20.30;;;;;;;-2.96;64.70;100966.00;1737372;81;21062;-82
2022/03/15 02:44:07;;;;;;;58.78;20.40;;;;;;;-2.95;65.11;100955.05;1764394;81;21053;-82
2022/03/15 02:46:34;;;;;;;49.30;20.23;;;;;;;-2.92;65.51;100954.84;1750313;81;20989;-82
2022/03/15 02:49:02;;;;;;;52.60;21.25;;;;;;;-2.88;66.29;100958.05;1734305;83;21051;-82
2022/03/15 02:51:28;;;;;;;43.60;18.52;;;;;;;-2.86;66.03;100947.96;1736801;82;20983;-81
2022/03/15 02:53:56;;;;;;;40.48;18.10;;;;;;;-2.89;61.32;100961.36;1736939;83;21003;-81
2022/03/15 02:56:23;;;;;;;45.83;17.45;;;;;;;-2.97;63.69;100957.90;1737864;81;21059;-81
2022/03/15 02:58:49;;;;;;;49.42;16.87;;;;;;;-2.96;62.97;100945.64;1734719;83;21054;-80
2022/03/15 03:01:16;;;;;;;52.83;17.17;;;;;;;-3.01;63.65;100937.75;1733882;83;20964;-80
2022/03/15 03:03:43;;;;;;;39.33;16.80;;;;;;;-3.09;61.63;100941.11;1732654;83;21050;-81
2022/03/15 03:06:09;;;;;;;44.83;16.50;;;;;;;-3.09;63.98;100938.56;1745044;81;21013;-81
2022/03/15 03:08:37;;;;;;;51.15;17.75;;;;;;;-3.05;63.50;100943.45;1735896;81;21399;-81
2022/03/15 03:11:05;;;;;;;45.43;17.75;;;;;;;-3.06;62.58;100936.21;1734713;83;20990;-82
2022/03/15 03:13:33;;;;;;;43.75;16.42;;;;;;;-3.07;65.94;100943.34;1747097;81;21040;-81
2022/03/15 03:16:00;;;;;;;40.73;14.18;;;;;;;-3.09;64.35;100942.78;1747946;82;21003;-80
2022/03/15 03:18:32;;;;;;;43.98;15.68;;;;;;;-3.11;62.44;100950.31;1743883;81;21111;-82
2022/03/15 03:20:58;;;;;;;41.18;15.83;;;;;;;-3.13;63.48;100963.34;1732177;83;21061;-82
2022/03/15 03:23:25;;;;;;;39.38;18.40;;;;;;;-3.11;62.30;100969.80;1713090;82;21057;-80
2022/03/15 03:25:51;;;;;;;35.95;14.93;;;;;;;-3.18;64.96;100974.02;1677092;83;21108;-81
2022/03/15 03:28:18;;;;;;;35.23;15.23;;;;;;;-3.22;62.64;100978.95;1670465;85;21071;-83
2022/03/15 03:30:46;;;;;;;35.70;14.83;;;;;;;-3.19;63.32;100979.52;1649326;86;21045;-81
2022/03/15 03:33:18;;;;;;;42.85;16.85;;;;;;;-3.10;65.57;100980.08;1648836;87;21107;-83
2022/03/15 03:35:49;;;;;;;34.13;14.53;;;;;;;-3.02;64.67;100985.63;1648745;87;21064;-82
2022/03/15 03:38:14;;;;;;;41.08;16.02;;;;;;;-2.94;66.07;100991.18;1645786;86;21040;-82
2022/03/15 03:40:41;;;;;;;33.48;14.78;;;;;;;-2.86;64.78;100987.42;1705383;83;21023;-82
2022/03/15 03:43:07;;;;;;;38.58;16.48;;;;;;;-2.84;64.57;100980.34;1707025;84;21046;-82
2022/03/15 03:45:37;;;;;;;40.80;17.00;;;;;;;-2.87;64.78;100980.16;1705055;84;21026;-82
2022/03/15 03:48:05;;;;;;;42.53;15.68;;;;;;;-2.93;65.24;100978.52;1681540;85;21027;-82
2022/03/15 03:50:32;;;;;;;52.98;22.52;;;;;;;-2.96;63.17;100983.45;1710204;83;21034;-82
2022/03/15 03:52:59;;;;;;;49.70;18.57;;;;;;;-3.00;65.55;100990.41;1712697;83;21035;-82
2022/03/15 03:55:25;;;;;;;64.25;22.02;;;;;;;-3.02;66.24;100998.35;1718554;81;21054;-82
2022/03/15 03:57:52;;;;;;;42.48;19.40;;;;;;;-3.04;66.12;101008.84;1710507;83;21018;-81
2022/03/15 04:00:19;;;;;;;42.17;17.30;;;;;;;-3.17;65.62;101009.73;1702308;83;21012;-82
2022/03/15 04:02:47;;;;;;;55.58;18.15;;;;;;;-3.23;64.96;101003.01;1681823;85;21008;-82
2022/03/15 04:05:15;;;;;;;43.50;18.77;;;;;;;-3.22;66.26;101002.23;1708230;84;21063;-82
2022/03/15 04:07:43;;;;;;;42.85;17.82;;;;;;;-3.19;65.85;100990.96;1675273;85;21039;-81
2022/03/15 04:10:11;;;;;;;52.88;20.50;;;;;;;-3.13;66.12;101000.23;1704789;84;21249;-82
2022/03/15 04:12:38;;;;;;;73.42;25.88;;;;;;;-3.16;63.75;101001.34;1675550;82;21060;-83
2022/03/15 04:15:06;;;;;;;64.87;22.50;;;;;;;-3.15;62.79;101013.66;1705243;81;21387;-82
2022/03/15 04:17:34;;;;;;;56.25;22.00;;;;;;;-3.25;64.27;101014.36;1705202;81;21019;-82
2022/03/15 04:20:02;;;;;;;63.78;22.87;;;;;;;-3.33;64.80;101010.47;1679458;85;21028;-82
2022/03/15 04:22:29;;;;;;;71.20;23.40;;;;;;;-3.34;63.89;101000.20;1669058;85;21048;-83
2022/03/15 04:24:56;;;;;;;64.80;22.07;;;;;;;-3.34;66.92;101001.09;1681949;84;21088;-82
2022/03/15 04:27:22;;;;;;;57.95;20.25;;;;;;;-3.30;66.17;100985.61;1693877;85;21104;-82
2022/03/15 04:29:49;;;;;;;67.60;24.75;;;;;;;-3.26;66.68;100988.45;1734130;83;21035;-81
2022/03/15 04:32:15;;;;;;;59.00;23.98;;;;;;;-3.20;67.21;100991.77;1747207;81;20991;-83
2022/03/15 04:34:42;;;;;;;52.55;18.77;;;;;;;-3.16;65.59;100988.62;1720170;83;21047;-80
2022/03/15 04:37:08;;;;;;;71.62;24.35;;;;;;;-3.13;66.01;100992.60;1679386;85;21055;-82
2022/03/15 04:39:35;;;;;;;60.55;21.05;;;;;;;-3.12;64.87;100988.02;1707180;82;21080;-82
2022/03/15 04:42:03;;;;;;;57.10;20.50;;;;;;;-3.11;63.44;100996.52;1710587;83;21051;-83
2022/03/15 04:44:29;;;;;;;53.95;21.25;;;;;;;-3.09;65.58;100997.08;1734786;83;21014;-81
2022/03/15 04:46:56;;;;;;;46.77;17.65;;;;;;;-3.04;64.89;101007.16;1730892;83;21057;-80
2022/03/15 04:49:23;;;;;;;53.73;19.75;;;;;;;-3.03;65.28;101006.36;1729534;81;21125;-81
2022/03/15 04:51:49;;;;;;;42.40;17.50;;;;;;;-3.04;64.81;101013.52;1752712;82;21583;-80
2022/03/15 04:54:16;;;;;;;58.85;17.57;;;;;;;-3.04;64.22;101007.16;1733967;82;20997;-82
2022/03/15 04:56:43;;;;;;;57.17;19.82;;;;;;;-3.04;64.28;100999.93;1740503;81;21104;-82
2022/03/15 04:59:10;;;;;;;59.27;15.68;;;;;;;-3.03;64.48;101007.63;1739229;80;20988;-81
2022/03/15 05:01:36;;;;;;;49.77;19.55;;;;;;;-2.98;64.64;101014.66;1733659;82;21009;-81
2022/03/15 05:04:03;;;;;;;70.10;23.52;;;;;;;-2.94;65.68;101014.08;1690922;85;21184;-81
2022/03/15 05:06:30;;;;;;;87.90;27.55;;;;;;;-2.91;66.03;101001.12;1673929;84;21012;-81
2022/03/15 05:08:56;;;;;;;95.20;23.22;;;;;;;-2.85;66.45;101000.21;1743914;81;21048;-81
2022/03/15 05:11:23;;;;;;;72.35;22.42;;;;;;;-2.83;64.76;101000.31;1753727;81;21006;-80
2022/03/15 05:13:49;;;;;;;72.25;21.52;;;;;;;-2.87;64.31;101001.79;1723705;83;21080;-81
2022/03/15 05:16:19;;;;;;;56.88;21.70;;;;;;;-2.89;62.96;101006.31;1702373;83;20996;-81
2022/03/15 05:18:47;;;;;;;78.35;24.85;;;;;;;-2.93;62.84;101007.78;1752908;81;20969;-81
2022/03/15 05:21:16;;;;;;;52.08;21.37;;;;;;;-2.94;64.31;101007.72;1762521;81;21061;-80
2022/03/15 05:23:47;;;;;;;63.78;21.50;;;;;;;-2.93;64.96;101014.16;1753621;81;20985;-81
2022/03/15 05:26:17;;;;;;;52.80;17.37;;;;;;;-2.87;66.75;101015.78;1752662;82;21020;-81
2022/03/15 05:28:45;;;;;;;53.87;19.25;;;;;;;-2.80;65.03;101011.96;1735369;82;21050;-81
2022/03/15 05:31:13;;;;;;;51.02;21.07;;;;;;;-2.84;65.61;101018.94;1732114;82;21047;-81
2022/03/15 05:33:39;;;;;;;61.85;20.92;;;;;;;-2.85;64.40;101021.84;1745543;82;21025;-80
2022/03/15 05:36:06;;;;;;;58.83;21.77;;;;;;;-2.81;64.63;101008.52;1713365;83;21062;-81
2022/03/15 05:38:32;;;;;;;46.70;19.07;;;;;;;-2.76;65.37;101008.80;1709267;84;21035;-82
2022/03/15 05:40:59;;;;;;;56.77;21.93;;;;;;;-2.71;65.68;101012.48;1709198;83;21070;-80
2022/03/15 05:43:26;;;;;;;48.70;17.23;;;;;;;-2.69;64.91;101010.91;1706248;84;21026;-80
2022/03/15 05:45:52;;;;;;;61.63;24.23;;;;;;;-2.67;64.43;101012.27;1692453;83;21020;-81
2022/03/15 05:48:19;;;;;;;50.60;20.30;;;;;;;-2.65;64.64;101006.47;1731288;80;21040;-80
2022/03/15 05:50:48;;;;;;;48.55;18.87;;;;;;;-2.61;65.33;100994.80;1795464;79;20991;-80
2022/03/15 05:53:15;;;;;;;54.23;21.52;;;;;;;-2.50;64.69;101005.63;1795295;80;20934;-80
2022/03/15 05:55:42;;;;;;;75.00;29.05;;;;;;;-2.40;63.68;101007.92;1795020;80;21099;-80
2022/03/15 05:58:09;;;;;;;67.15;25.20;;;;;;;-2.32;64.38;101002.86;1775944;80;21089;-81
2022/03/15 06:00:37;;;;;;;51.28;22.98;;;;;;;-2.20;66.57;101006.11;1774105;80;21022;-80
2022/03/15 06:03:03;;;;;;;51.50;22.05;;;;;;;-2.13;65.78;101001.35;1773755;80;21063;-80
2022/03/15 06:05:30;;;;;;;55.52;24.23;;;;;;;-1.95;66.33;101015.53;1737168;82;20983;-80
2022/03/15 06:07:57;;;;;;;49.93;18.70;;;;;;;-1.86;64.92;101006.72;1700100;84;21042;-81
2022/03/15 06:10:24;;;;;;;46.92;20.65;;;;;;;-1.80;65.04;101003.23;1701992;83;21284;-80
2022/03/15 06:15:28;;;;;;;52.20;20.10;;;;;;;-1.81;63.80;101004.42;1685440;82;21123;-81
2022/03/15 06:18:01;;;;;;;53.83;22.80;;;;;;;-1.75;62.71;101007.34;1711875;80;21023;-82
2022/03/15 06:20:29;;;;;;;55.03;23.75;;;;;;;-1.72;64.37;101010.44;1741015;79;21032;-80
2022/03/15 06:22:59;;;;;;;53.15;19.98;;;;;;;-1.67;62.91;101008.62;1761271;79;21035;-81
2022/03/15 06:25:30;;;;;;;55.20;21.70;;;;;;;-1.62;63.88;101007.59;1758306;82;21079;-82
2022/03/15 06:27:57;;;;;;;48.08;20.05;;;;;;;-1.55;64.52;101003.32;1749826;82;21160;-81
2022/03/15 06:30:24;;;;;;;58.25;24.45;;;;;;;-1.45;63.29;101000.47;1742191;82;21029;-82
2022/03/15 06:32:51;;;;;;;47.03;20.12;;;;;;;-1.38;63.04;101001.66;1758631;82;21300;-81
2022/03/15 06:35:19;;;;;;;64.72;23.42;;;;;;;-1.31;62.21;101013.09;1758623;81;21012;-83
2022/03/15 06:37:49;;;;;;;44.50;19.45;;;;;;;-1.29;63.15;101011.09;1767179;79;21008;-80
2022/03/15 06:40:33;;;;;;;64.15;23.07;;;;;;;-1.16;62.17;101005.36;1781706;80;20984;-81
2022/03/15 06:42:59;;;;;;;49.13;19.92;;;;;;;-1.14;62.69;101008.87;1680417;84;21225;-82
2022/03/15 06:45:26;;;;;;;64.50;21.93;;;;;;;-1.00;62.82;101003.67;1699475;83;21050;-83
2022/03/15 06:47:53;;;;;;;49.00;19.20;;;;;;;-0.86;62.00;101002.23;1711479;83;21080;-81
2022/03/15 06:50:21;;;;;;;60.05;22.75;;;;;;;-0.78;61.88;101007.34;1686897;79;21367;-83
2022/03/15 06:52:48;;;;;;;46.20;19.92;;;;;;;-0.70;61.25;101020.09;1680827;83;21072;-80
2022/03/15 06:55:15;;;;;;;55.23;22.02;;;;;;;-0.61;60.89;101018.02;1653782;82;21054;-83
2022/03/15 06:57:42;;;;;;;50.35;23.12;;;;;;;-0.51;60.81;101016.81;1700960;81;21018;-84
2022/03/15 07:00:13;;;;;;;50.23;20.32;;;;;;;-0.39;60.26;101009.29;1668680;84;20996;-83
2022/03/15 07:02:40;;;;;;;58.13;23.10;;;;;;;-0.33;60.11;101015.57;1675843;84;21112;-80
2022/03/15 07:05:09;;;;;;;61.98;24.52;;;;;;;-0.26;60.35;101019.30;1668979;85;21110;-80
2022/03/15 07:07:37;;;;;;;68.90;26.52;;;;;;;-0.10;59.87;101026.05;1675044;82;21035;-84
2022/03/15 07:10:09;;;;;;;72.95;27.77;;;;;;;-0.01;59.63;101017.55;1669615;84;21115;-80
2022/03/15 07:12:38;;;;;;;67.08;25.08;;;;;;;0.10;59.90;101014.22;1669716;84;21019;-82
2022/03/15 07:15:06;;;;;;;75.17;29.65;;;;;;;0.28;59.89;101003.60;1681469;84;20991;-83
2022/03/15 07:17:33;;;;;;;53.75;24.95;;;;;;;0.48;59.74;101012.20;1665615;85;21057;-81
2022/03/15 07:20:00;;;;;;;88.72;33.05;;;;;;;0.67;58.94;101016.87;1678076;84;21333;-83
2022/03/15 07:22:27;;;;;;;81.50;30.00;;;;;;;0.82;58.65;101015.41;1680248;83;21019;-84
2022/03/15 07:24:54;;;;;;;94.25;36.33;;;;;;;0.98;58.59;101019.14;1677225;84;21026;-84
2022/03/15 07:27:21;;;;;;;83.85;33.83;;;;;;;1.13;57.80;101024.05;1675094;84;21385;-78
2022/03/15 07:29:48;;;;;;;77.42;31.75;;;;;;;1.29;57.64;101025.59;1665108;84;21082;-82
2022/03/15 07:32:14;;;;;;;76.82;32.48;;;;;;;1.44;57.47;101017.70;1673290;84;21034;-83
2022/03/15 07:34:41;;;;;;;67.00;27.98;;;;;;;1.56;56.85;101019.09;1677404;83;21350;-84
2022/03/15 07:37:07;;;;;;;88.20;33.92;;;;;;;1.63;56.94;101018.06;1701138;83;21097;-83
2022/03/15 07:39:34;;;;;;;70.72;32.25;;;;;;;1.69;56.55;101014.09;1667569;84;20985;-83
2022/03/15 07:42:01;;;;;;;76.25;30.45;;;;;;;1.68;56.37;101021.30;1669867;85;21046;-82
2022/03/15 07:44:29;;;;;;;68.60;29.55;;;;;;;1.81;56.41;101015.38;1693964;83;21008;-81
2022/03/15 07:46:56;;;;;;;67.85;28.90;;;;;;;1.93;56.54;101013.31;1660044;85;21077;-80
2022/03/15 07:49:22;;;;;;;64.45;28.77;;;;;;;2.04;56.06;101008.22;1672135;84;21007;-79
2022/03/15 07:51:50;;;;;;;74.75;30.43;;;;;;;2.07;55.93;101003.61;1677898;84;21114;-80
2022/03/15 07:54:17;;;;;;;56.55;26.35;;;;;;;2.18;56.12;101001.94;1678291;84;20983;-80
2022/03/15 07:56:44;;;;;;;62.75;25.32;;;;;;;2.31;55.94;101008.86;1669846;84;21158;-81
2022/03/15 07:59:11;;;;;;;67.10;27.93;;;;;;;2.30;55.72;101002.83;1683742;82;21051;-84
2022/03/15 08:01:38;;;;;;;74.65;28.73;;;;;;;2.40;55.54;100989.94;1666662;85;21106;-79
2022/03/15 08:04:05;;;;;;;72.08;25.57;;;;;;;2.42;55.09;100993.86;1681741;84;21007;-81
2022/03/15 08:06:35;;;;;;;74.15;30.37;;;;;;;2.50;54.89;100996.30;1698067;83;21525;-79
2022/03/15 08:09:03;;;;;;;59.20;27.00;;;;;;;2.52;55.03;100990.81;1687578;84;21133;-79
2022/03/15 08:11:30;;;;;;;57.98;23.40;;;;;;;2.61;54.66;100987.33;1686265;84;21041;-79
2022/03/15 08:13:58;;;;;;;68.25;27.37;;;;;;;2.56;54.41;100988.83;1677667;84;21001;-79
2022/03/15 08:16:26;;;;;;;51.23;22.87;;;;;;;2.42;54.23;100994.72;1680315;84;21034;-81
2022/03/15 08:18:54;;;;;;;70.60;27.70;;;;;;;2.41;54.51;100984.39;1678876;84;20948;-81
2022/03/15 08:21:22;;;;;;;67.80;28.50;;;;;;;2.43;54.53;100986.61;1685167;84;21074;-81
2022/03/15 08:23:50;;;;;;;68.97;29.32;;;;;;;2.47;54.34;100991.07;1676845;85;21121;-80
2022/03/15 08:26:18;;;;;;;64.95;28.77;;;;;;;2.49;54.09;100992.87;1671387;85;21007;-83
2022/03/15 08:28:48;;;;;;;60.33;25.27;;;;;;;2.48;53.80;100996.66;1677982;85;20998;-82
2022/03/15 08:31:16;;;;;;;70.10;27.73;;;;;;;2.43;53.93;100993.02;1676012;85;21035;-82
2022/03/15 08:33:44;;;;;;;62.95;28.73;;;;;;;2.50;53.86;100987.32;1712062;78;21114;-84
2022/03/15 08:36:13;;;;;;;59.30;23.80;;;;;;;2.56;53.96;100984.56;1722927;81;21051;-85
2022/03/15 08:38:41;;;;;;;64.17;27.62;;;;;;;2.68;54.04;100983.28;1713871;80;21146;-79
2022/03/15 08:41:08;;;;;;;66.97;26.57;;;;;;;2.78;53.46;100982.37;1724053;82;20999;-80
2022/03/15 08:43:35;;;;;;;62.20;26.77;;;;;;;2.87;52.57;100980.99;1708323;83;21031;-81
2022/03/15 08:46:02;;;;;;;63.02;25.40;;;;;;;3.01;52.81;100985.34;1715004;83;20993;-82
2022/03/15 08:48:29;;;;;;;55.45;24.30;;;;;;;3.07;51.96;100977.85;1733619;82;21143;-83
2022/03/15 08:50:55;;;;;;;52.33;24.18;;;;;;;3.20;52.33;100971.02;1748126;82;21043;-83
2022/03/15 08:53:22;;;;;;;63.65;23.20;;;;;;;3.21;51.74;100965.06;1746380;81;21027;-83
2022/03/15 08:55:49;;;;;;;73.35;29.70;;;;;;;3.30;51.16;100964.50;1746651;81;21136;-85
2022/03/15 08:58:15;;;;;;;61.18;26.70;;;;;;;3.43;50.88;100960.66;1756023;77;22173;-84
2022/03/15 09:00:44;;;;;;;62.70;25.80;;;;;;;3.56;50.66;100958.94;1782764;79;20998;-84
2022/03/15 09:03:10;;;;;;;69.58;26.02;;;;;;;3.71;50.94;100957.30;1776242;80;20928;-84
2022/03/15 09:05:38;;;;;;;59.08;24.77;;;;;;;3.81;48.91;100954.62;1744870;79;21149;-86
2022/03/15 09:08:05;;;;;;;48.60;22.25;;;;;;;3.90;49.33;100948.45;1729180;80;21122;-83
2022/03/15 09:10:32;;;;;;;51.50;22.40;;;;;;;4.06;50.00;100952.00;1735041;81;21087;-88
2022/03/15 09:13:03;;;;;;;48.65;22.60;;;;;;;4.23;49.32;100947.77;1747402;80;20982;-84
2022/03/15 09:15:30;;;;;;;49.53;23.50;;;;;;;4.43;48.47;100940.22;1740478;81;21061;-81
2022/03/15 09:17:57;;;;;;;53.65;23.38;;;;;;;4.64;47.75;100947.70;1761925;81;21030;-81
2022/03/15 09:20:25;;;;;;;58.33;24.85;;;;;;;4.83;49.03;100938.77;1742978;82;21058;-80
2022/03/15 09:22:52;;;;;;;54.55;24.15;;;;;;;4.94;47.70;100930.93;1744500;81;21019;-80
2022/03/15 09:25:22;;;;;;;57.88;24.40;;;;;;;5.12;48.27;100928.39;1739444;82;21485;-82
2022/03/15 09:27:49;;;;;;;62.30;26.35;;;;;;;5.26;47.02;100924.47;1745250;81;21009;-81
2022/03/15 09:30:17;;;;;;;51.83;23.80;;;;;;;5.40;47.80;100925.24;1763554;80;20995;-83
2022/03/15 09:32:45;;;;;;;60.78;23.47;;;;;;;5.55;46.80;100925.60;1761065;81;20978;-83
2022/03/15 09:35:13;;;;;;;55.38;23.18;;;;;;;5.75;47.88;100908.05;1753923;81;20994;-83
2022/03/15 09:37:41;;;;;;;45.83;21.10;;;;;;;5.90;46.67;100911.39;1747846;79;21093;-82
2022/03/15 09:40:10;;;;;;;45.98;21.57;;;;;;;6.04;46.68;100903.56;1729495;79;21139;-79
2022/03/15 09:42:37;;;;;;;65.10;23.83;;;;;;;6.22;46.10;100900.51;1713524;79;21915;-83
2022/03/15 09:45:06;;;;;;;40.03;20.55;;;;;;;6.47;46.69;100895.45;1748578;80;21059;-79
2022/03/15 09:47:36;;;;;;;41.85;20.10;;;;;;;6.57;45.45;100884.45;1743860;81;21049;-83
2022/03/15 09:50:06;;;;;;;45.92;20.17;;;;;;;6.76;46.04;100879.62;1750967;81;21089;-78
2022/03/15 09:52:34;;;;;;;42.33;19.50;;;;;;;6.86;43.98;100875.08;1747170;81;21030;-81
2022/03/15 09:55:02;;;;;;;37.78;17.73;;;;;;;7.04;44.03;100872.38;1744852;81;21006;-81
2022/03/15 09:57:31;;;;;;;31.82;15.98;;;;;;;7.20;44.00;100875.67;1743302;81;21046;-80
2022/03/15 10:00:00;;;;;;;31.97;16.15;;;;;;;7.41;45.06;100867.41;1749736;81;21015;-82
2022/03/15 10:02:27;;;;;;;27.02;13.50;;;;;;;7.61;44.58;100865.14;1741637;81;20955;-83
2022/03/15 10:04:54;;;;;;;27.80;14.80;;;;;;;7.74;44.05;100863.63;1750504;81;21012;-80
2022/03/15 10:07:21;;;;;;;31.45;15.03;;;;;;;7.87;43.59;100860.77;1749518;81;21001;-79
2022/03/15 10:09:48;;;;;;;33.10;16.07;;;;;;;7.98;41.62;100866.98;1751254;81;21000;-81
2022/03/15 10:12:15;;;;;;;33.08;16.95;;;;;;;8.15;39.44;100870.64;1741429;81;21006;-80
2022/03/15 10:14:47;;;;;;;32.42;15.63;;;;;;;8.31;40.48;100860.48;1749531;81;20998;-80
2022/03/15 10:17:15;;;;;;;35.73;18.07;;;;;;;8.47;40.32;100852.07;1752965;81;20995;-82
2022/03/15 10:19:54;;;;;;;36.48;17.55;;;;;;;8.62;38.76;100851.83;1742594;81;20966;-78
2022/03/15 10:22:24;;;;;;;37.35;16.60;;;;;;;8.77;39.14;100839.00;1744177;81;21014;-80
2022/03/15 10:24:52;;;;;;;37.73;17.20;;;;;;;8.97;38.91;100834.00;1737511;81;21051;-79
2022/03/15 10:27:19;;;;;;;35.50;16.52;;;;;;;9.10;37.20;100829.38;1713727;82;21014;-78
2022/03/15 10:29:47;;;;;;;35.52;17.17;;;;;;;9.32;39.81;100821.77;1751233;81;21045;-79
2022/03/15 10:32:16;;;;;;;32.03;16.15;;;;;;;9.36;38.52;100816.60;1750226;81;21260;-79
2022/03/15 10:34:43;;;;;;;36.75;16.80;;;;;;;9.44;37.63;100814.50;1709645;82;21125;-84
2022/03/15 10:37:11;;;;;;;35.98;17.42;;;;;;;9.63;38.61;100807.69;1750866;81;20987;-81
2022/03/15 10:39:39;;;;;;;35.55;17.62;;;;;;;9.82;36.03;100804.78;1754404;81;20982;-79
2022/03/15 10:42:08;;;;;;;41.70;19.10;;;;;;;9.96;38.05;100807.02;1737469;80;21190;-79
2022/03/15 10:44:38;;;;;;;40.03;18.30;;;;;;;10.06;37.92;100803.59;1734248;81;20977;-80
2022/03/15 10:47:17;;;;;;;35.35;17.85;;;;;;;10.13;37.92;100796.27;1735569;81;22348;-80
2022/03/15 10:49:54;;;;;;;33.10;17.17;;;;;;;10.24;33.39;100787.20;1711763;82;20998;-78
2022/03/15 10:52:40;;;;;;;33.67;17.75;;;;;;;10.43;35.26;100782.97;1733800;81;21198;-79
2022/03/15 10:55:24;;;;;;;38.92;17.87;;;;;;;10.63;34.01;100780.84;1739408;81;20976;-80
2022/03/15 10:57:58;;;;;;;34.95;17.25;;;;;;;10.80;33.99;100780.41;1732485;82;21797;-80
2022/03/15 11:00:36;;;;;;;34.83;16.95;;;;;;;10.89;35.75;100772.63;1742278;81;21064;-81
2022/03/15 11:03:19;;;;;;;31.15;16.32;;;;;;;11.06;36.44;100766.54;1736532;81;21070;-80
2022/03/15 11:05:42;;;;;;;36.55;17.52;;;;;;;11.25;34.92;100764.80;1736293;81;21084;-80
2022/03/15 11:08:13;;;;;;;34.18;17.60;;;;;;;11.33;34.96;100760.45;1731512;81;21048;-80
2022/03/15 11:10:47;;;;;;;30.00;16.85;;;;;;;11.47;34.74;100756.52;1678566;84;21603;-80
2022/03/15 11:13:14;;;;;;;42.85;18.17;;;;;;;11.64;34.41;100750.84;1679366;84;21093;-81
2022/03/15 11:15:49;;;;;;;33.05;17.10;;;;;;;11.74;31.96;100751.68;1709519;83;21060;-80
2022/03/15 11:18:19;;;;;;;35.98;17.50;;;;;;;11.91;34.39;100751.64;1709827;83;21511;-80